Maceio の空港の天気 - METARとTAF

マセイオ/ズンビ・ドス・パウマーレス国際空港 ( SBMO / MCZ ) - ブラジル アラゴアス州、Maceio
飛行場実況気象(Metar)
観測時間09/27 21:00 BRT (09/28 00:00 UTC)
風向・風速東 2m/s
視程10km以上
天気現象
少しの雲 雲底高度 760m
気温22℃
湿度88%
気圧1017hPa
METARSBMO 280000Z 10004KT 9999 FEW025 22/20 Q1017
過去の天気等 Google飛行場航空写真 Wunderground天気予報

過去48時間のMETAR

飛行場予報(TAF)
発表時間: 9/27 18:00 BRT (9/27 21:00 UTC)
予報対象時間: 27日21時 BRT ~ 28日21時 BRT
風向・風速東 3m/s
視程10km以上
少しの雲 雲底高度 610m
28日4時 BRT ~ 28日6時 BRT に徐々に
風向・風速北西 3m/s
全天の4割程度の雲 雲底高度 610m
28日8時 BRT ~ 28日10時 BRT に徐々に
風向・風速東 5m/s
全天の8割程度の雲 雲底高度 910m
TAF SBMO 272100Z 2800/2824 10005KT 9999 FEW020 TN20/2807Z TX28/2815Z
BECMG 2807/2809 31005KT SCT020
BECMG 2811/2813 09010KT BKN030 RMK PHD